Time;durP1;ratioP1;P1;durP2;ratioP2;P2;SDS_P1;SDS_P2;PMS_P1;PMS_P2;Temp;Humidity;BMP_temperature;BMP_pressure;BME280_temperature;BME280_humidity;BME280_pressure;Samples;Min_cycle;Max_cycle;Signal;HPM_P1;HPM_P2
2024/02/19 00:01:15;;;;;;;3.80;1.70;;;;;;;0.67;60.36;100238.92;104847;1267;71408;-28
2024/02/19 00:11:20;;;;;;;5.50;3.20;;;;;;;0.18;62.39;100235.65;102732;1290;600180;-27
2024/02/19 00:13:48;;;;;;;6.50;3.20;;;;;;;0.12;62.38;100237.80;105056;1267;61215;-27
2024/02/19 00:16:16;;;;;;;3.20;1.90;;;;;;;0.01;63.67;100238.70;105189;1268;61171;-27
2024/02/19 00:18:44;;;;;;;7.80;4.80;;;;;;;-0.19;65.03;100231.20;105199;1266;70976;-28
2024/02/19 00:21:15;;;;;;;9.30;3.90;;;;;;;-0.36;64.72;100229.81;105185;1266;73227;-28
2024/02/19 00:23:43;;;;;;;10.40;4.60;;;;;;;0.33;63.54;100222.36;104755;1269;72685;-28
2024/02/19 00:26:13;;;;;;;15.30;7.60;;;;;;;1.40;61.96;100213.13;105114;1260;190535;-27
2024/02/19 00:28:41;;;;;;;22.90;10.80;;;;;;;1.81;60.70;100212.61;105254;1266;61144;-27
2024/02/19 00:38:46;;;;;;;21.80;8.20;;;;;;;1.35;60.50;100204.02;102791;1294;600147;-27
2024/02/19 00:48:49;;;;;;;14.20;7.50;;;;;;;0.83;61.54;100182.69;103020;1289;600181;-27
2024/02/19 00:51:17;;;;;;;24.50;10.10;;;;;;;0.67;61.71;100189.02;105035;1266;61184;-28
2024/02/19 00:53:45;;;;;;;27.20;11.80;;;;;;;0.56;62.24;100180.38;105128;1270;61167;-27
2024/02/19 00:56:13;;;;;;;21.70;9.10;;;;;;;0.47;62.38;100179.89;104856;1267;72239;-28
2024/02/19 01:06:23;;;;;;;27.20;12.30;;;;;;;1.61;59.67;100173.92;103754;1280;599695;-27
2024/02/19 01:08:51;;;;;;;37.50;15.90;;;;;;;1.31;59.55;100169.38;104886;1264;61175;-27
2024/02/19 01:11:19;;;;;;;29.20;12.30;;;;;;;1.88;59.79;100167.05;105053;1264;61192;-28
2024/02/19 01:13:47;;;;;;;36.90;15.90;;;;;;;1.77;59.42;100165.62;105026;1269;72192;-28
2024/02/19 01:16:14;;;;;;;33.30;15.10;;;;;;;1.50;60.02;100167.37;104846;1264;74299;-28
2024/02/19 01:18:43;;;;;;;34.00;12.70;;;;;;;1.26;60.63;100163.88;104869;1264;71365;-27
2024/02/19 01:28:51;;;;;;;21.20;8.70;;;;;;;0.41;62.00;100152.86;102647;1292;599499;-27
2024/02/19 01:31:21;;;;;;;26.00;10.30;;;;;;;0.19;62.47;100153.64;104842;1266;61194;-27
2024/02/19 01:33:48;;;;;;;20.60;8.90;;;;;;;0.01;62.39;100153.84;104781;1271;61184;-28
2024/02/19 01:36:17;;;;;;;26.20;8.70;;;;;;;-0.19;62.29;100147.41;104828;1266;71379;-27
2024/02/19 01:38:45;;;;;;;18.90;8.40;;;;;;;-0.39;62.89;100138.75;104837;1266;74782;-27
2024/02/19 01:41:12;;;;;;;15.90;7.30;;;;;;;-0.61;63.65;100135.92;104822;1271;72482;-28
2024/02/19 01:43:40;;;;;;;9.60;4.10;;;;;;;-0.84;64.63;100136.99;104901;1265;160508;-28
2024/02/19 01:46:08;;;;;;;9.70;3.30;;;;;;;-0.44;65.25;100128.92;105025;1264;61069;-28
2024/02/19 01:56:23;;;;;;;16.90;6.60;;;;;;;0.65;62.29;100117.64;102771;1293;599366;-27
2024/02/19 01:58:51;;;;;;;12.90;5.00;;;;;;;0.34;62.95;100113.54;105043;1264;61123;-28
2024/02/19 02:01:18;;;;;;;9.40;4.50;;;;;;;0.04;63.08;100112.45;104863;1264;61112;-28
2024/02/19 02:11:27;;;;;;;4.90;2.40;;;;;;;-0.73;64.07;100112.76;103201;1286;598619;-28
2024/02/19 02:13:55;;;;;;;7.20;2.60;;;;;;;-0.93;65.00;100114.98;104777;1266;60997;-28
2024/02/19 02:16:26;;;;;;;5.60;3.20;;;;;;;-1.09;66.38;100118.98;104782;1265;61182;-28
2024/02/19 02:18:54;;;;;;;4.50;3.00;;;;;;;-1.26;66.34;100108.17;104632;1266;72712;-28
2024/02/19 02:21:23;;;;;;;3.50;2.10;;;;;;;-1.44;65.83;100097.88;104839;1271;74314;-28
2024/02/19 02:23:51;;;;;;;2.10;1.00;;;;;;;-0.90;66.45;100100.40;104739;1270;72636;-28
2024/02/19 02:26:18;;;;;;;4.10;2.10;;;;;;;0.12;64.36;100103.74;104958;1263;172085;-28
2024/02/19 02:28:47;;;;;;;3.80;2.70;;;;;;;0.47;63.15;100101.81;105153;1263;61063;-28
2024/02/19 02:31:14;;;;;;;3.30;2.20;;;;;;;0.40;62.63;100100.59;105163;1268;72198;-28
2024/02/19 02:41:21;;;;;;;7.60;3.20;;;;;;;-0.54;63.40;100106.44;102789;1291;599923;-28
2024/02/19 02:43:49;;;;;;;13.70;4.60;;;;;;;-0.76;63.66;100107.00;105227;1269;61129;-28
2024/02/19 02:53:53;;;;;;;11.40;3.90;;;;;;;-1.52;65.86;100101.07;103112;1286;600177;-27
2024/02/19 02:56:21;;;;;;;9.80;3.30;;;;;;;-1.73;66.63;100095.92;105040;1269;61228;-27
2024/02/19 02:58:49;;;;;;;4.90;2.30;;;;;;;-1.30;68.22;100100.73;104818;1269;61193;-28
2024/02/19 03:01:18;;;;;;;8.00;3.60;;;;;;;-0.36;66.14;100102.16;104893;1265;71777;-28
2024/02/19 03:03:46;;;;;;;5.90;3.10;;;;;;;0.09;64.78;100098.86;104806;1267;74279;-28
2024/02/19 03:06:14;;;;;;;11.60;4.20;;;;;;;-0.09;64.58;100097.20;104870;1267;72643;-28
2024/02/19 03:08:42;;;;;;;7.80;3.50;;;;;;;-0.31;64.36;100092.00;104938;1269;209673;-28
2024/02/19 03:18:47;;;;;;;4.30;2.80;;;;;;;-1.41;66.56;100090.00;102726;1293;600055;-27
2024/02/19 03:21:17;;;;;;;3.10;2.40;;;;;;;-1.67;66.49;100085.61;104854;1271;61209;-28
2024/02/19 03:23:51;;;;;;;5.90;3.00;;;;;;;-1.85;67.31;100089.11;104811;1270;61090;-28
2024/02/19 03:26:25;;;;;;;5.00;2.90;;;;;;;-1.99;68.03;100086.06;105601;1260;71006;-27
2024/02/19 03:29:11;;;;;;;4.30;2.10;;;;;;;-2.06;67.79;100080.20;105597;1261;74262;-28
2024/02/19 03:31:41;;;;;;;3.20;1.60;;;;;;;-2.31;68.61;100077.94;104991;1255;426499;-28
2024/02/19 03:34:09;;;;;;;1.70;1.10;;;;;;;-1.82;68.05;100072.36;105692;1260;61307;-27
2024/02/19 03:36:38;;;;;;;9.10;3.30;;;;;;;-0.82;66.21;100072.82;105656;1255;61121;-28
2024/02/19 03:39:06;;;;;;;7.80;3.60;;;;;;;-0.37;64.84;100073.17;105689;1259;72201;-28
2024/02/19 03:41:33;;;;;;;7.30;3.60;;;;;;;-0.52;64.24;100070.23;105666;1259;74377;-28
2024/02/19 03:44:01;;;;;;;4.60;2.70;;;;;;;-0.67;64.12;100070.00;105669;1254;71348;-28
2024/02/19 03:46:30;;;;;;;3.50;2.70;;;;;;;-0.96;64.25;100073.76;105661;1260;61167;-28
2024/02/19 03:48:58;;;;;;;6.70;3.10;;;;;;;-1.26;64.91;100074.44;105703;1258;61141;-28
2024/02/19 03:51:26;;;;;;;5.90;2.90;;;;;;;-1.42;65.09;100073.66;105643;1260;73550;-27
2024/02/19 03:53:54;;;;;;;8.80;3.20;;;;;;;-1.76;65.37;100075.19;105551;1260;73003;-28
2024/02/19 04:03:58;;;;;;;5.10;2.90;;;;;;;-2.57;67.87;100075.16;102759;1294;599434;-28
2024/02/19 04:06:26;;;;;;;3.50;2.40;;;;;;;-2.78;68.57;100071.84;104815;1266;61190;-28
2024/02/19 04:08:54;;;;;;;4.20;1.80;;;;;;;-2.33;68.99;100069.44;104891;1264;61133;-27
2024/02/19 04:11:22;;;;;;;6.30;2.60;;;;;;;-1.27;67.47;100072.56;104916;1265;71226;-28
2024/02/19 04:13:50;;;;;;;17.90;3.90;;;;;;;-0.87;66.00;100069.51;105088;1266;74340;-28
2024/02/19 04:23:55;;;;;;;12.50;5.70;;;;;;;-1.55;66.11;100064.83;102734;1293;600237;-27
2024/02/19 04:26:23;;;;;;;11.50;5.50;;;;;;;-1.82;65.92;100066.42;104905;1272;61252;-28
2024/02/19 04:28:56;;;;;;;11.20;4.20;;;;;;;-2.06;66.42;100065.73;104932;1264;61145;-28
2024/02/19 04:31:24;;;;;;;15.10;4.90;;;;;;;-2.29;66.96;100066.88;104847;1266;71965;-27
2024/02/19 04:33:51;;;;;;;14.20;5.20;;;;;;;-2.50;68.00;100068.47;104980;1267;74388;-27
2024/02/19 04:36:19;;;;;;;11.70;5.40;;;;;;;-2.70;69.33;100064.77;104833;1266;71368;-27
2024/02/19 04:38:47;;;;;;;11.30;4.80;;;;;;;-2.86;69.27;100064.27;104920;1265;61196;-27
2024/02/19 04:41:15;;;;;;;8.00;3.80;;;;;;;-2.48;69.83;100065.55;105176;1263;61131;-28
2024/02/19 04:51:23;;;;;;;7.00;3.50;;;;;;;-1.37;65.27;100063.02;102729;1294;599518;-27
2024/02/19 04:53:51;;;;;;;9.50;4.80;;;;;;;-1.70;65.53;100060.45;104792;1273;61264;-28
2024/02/19 04:56:19;;;;;;;12.50;4.90;;;;;;;-1.95;66.43;100060.80;104785;1273;61202;-27
2024/02/19 04:58:46;;;;;;;10.10;4.90;;;;;;;-2.17;66.83;100065.35;104882;1268;70970;-27
2024/02/19 05:01:14;;;;;;;9.90;3.80;;;;;;;-2.36;67.18;100062.85;104786;1273;74441;-27
2024/02/19 05:03:42;;;;;;;8.30;3.30;;;;;;;-2.56;66.98;100060.38;104819;1270;72616;-27
2024/02/19 05:06:11;;;;;;;10.10;3.90;;;;;;;-2.75;67.21;100056.51;104535;1272;452990;-28
2024/02/19 05:08:39;;;;;;;8.80;3.60;;;;;;;-2.93;67.39;100054.98;105199;1267;61150;-27
2024/02/19 05:11:06;;;;;;;7.00;2.70;;;;;;;-3.09;67.61;100054.98;104838;1269;70947;-27
2024/02/19 05:13:37;;;;;;;13.70;5.20;;;;;;;-3.26;67.54;100054.77;105161;1264;73320;-27
2024/02/19 05:23:43;;;;;;;26.40;11.30;;;;;;;-1.42;66.60;100045.73;102728;1292;600141;-27
2024/02/19 05:33:48;;;;;;;23.30;10.10;;;;;;;-2.14;66.68;100042.00;102712;1295;600144;-28
2024/02/19 05:36:16;;;;;;;30.30;11.40;;;;;;;-2.33;66.78;100045.66;104819;1272;61210;-27
2024/02/19 05:38:44;;;;;;;31.70;12.60;;;;;;;-2.51;66.86;100045.20;104913;1264;61081;-27
2024/02/19 05:41:12;;;;;;;24.10;9.70;;;;;;;-2.69;66.83;100044.70;104893;1271;72182;-27
2024/02/19 05:43:41;;;;;;;23.60;9.50;;;;;;;-3.05;67.44;100044.90;104907;1270;74312;-28
2024/02/19 05:46:10;;;;;;;26.40;9.90;;;;;;;-3.02;67.95;100043.69;104922;1264;71435;-28
2024/02/19 05:48:38;;;;;;;16.60;8.30;;;;;;;-3.04;68.05;100041.31;105035;1267;219484;-28
2024/02/19 05:51:06;;;;;;;8.40;3.60;;;;;;;-3.18;67.80;100045.36;105189;1264;61262;-28
2024/02/19 05:53:34;;;;;;;11.50;3.30;;;;;;;-2.68;68.47;100042.65;105034;1261;72018;-27
2024/02/19 05:56:03;;;;;;;12.30;6.40;;;;;;;-1.53;67.02;100048.79;105238;1264;74282;-26
2024/02/19 05:58:31;;;;;;;20.20;8.00;;;;;;;-1.04;65.54;100047.15;105100;1261;71454;-27
2024/02/19 06:00:59;;;;;;;12.50;5.70;;;;;;;-1.05;64.71;100046.28;105176;1266;61100;-27
2024/02/19 06:03:28;;;;;;;7.60;5.60;;;;;;;-1.25;64.38;100041.35;105068;1267;61189;-26
2024/02/19 06:05:55;;;;;;;17.40;9.20;;;;;;;-1.43;64.56;100045.58;104910;1270;72989;-27
2024/02/19 06:08:23;;;;;;;36.80;13.40;;;;;;;-1.61;64.92;100039.04;105040;1261;74282;-26
2024/02/19 06:10:51;;;;;;;34.90;13.70;;;;;;;-1.76;65.42;100038.23;105088;1264;72653;-27
2024/02/19 06:13:19;;;;;;;44.10;14.60;;;;;;;-1.86;65.94;100042.30;105835;1257;61157;-26
2024/02/19 06:15:47;;;;;;;37.80;15.00;;;;;;;-1.91;66.48;100046.63;105905;1257;61170;-26
2024/02/19 06:26:00;;;;;;;41.10;15.10;;;;;;;-1.88;66.85;100056.45;102678;1292;599215;-27
2024/02/19 06:36:06;;;;;;;38.40;14.90;;;;;;;0.63;62.95;100056.65;102747;1292;600062;-26
2024/02/19 06:38:34;;;;;;;41.60;16.90;;;;;;;0.76;62.09;100062.32;105066;1267;61075;-27
2024/02/19 06:41:02;;;;;;;35.60;15.20;;;;;;;0.79;62.39;100063.28;104872;1279;61126;-28
2024/02/19 06:43:30;;;;;;;22.40;8.70;;;;;;;0.77;62.24;100064.52;104892;1269;72227;-27
2024/02/19 06:45:58;;;;;;;12.90;5.80;;;;;;;0.68;61.64;100065.08;104954;1270;74329;-28
2024/02/19 06:48:26;;;;;;;11.10;4.50;;;;;;;0.59;61.33;100067.01;104833;1279;72616;-28
2024/02/19 06:50:54;;;;;;;9.00;4.20;;;;;;;0.47;60.69;100064.04;104869;1269;359887;-28
2024/02/19 07:00:58;;;;;;;4.70;2.30;;;;;;;0.08;60.16;100058.59;102728;1294;600751;-28
2024/02/19 07:03:26;;;;;;;6.10;2.50;;;;;;;-0.00;60.16;100064.08;105127;1263;62076;-28
2024/02/19 07:05:54;;;;;;;5.10;2.10;;;;;;;-0.08;59.84;100068.34;104848;1271;62724;-28
2024/02/19 07:08:23;;;;;;;2.90;1.70;;;;;;;-0.12;60.10;100068.74;105682;1254;72214;-28
2024/02/19 07:10:52;;;;;;;4.10;2.20;;;;;;;0.75;58.87;100067.80;105711;1258;74527;-28
2024/02/19 07:13:20;;;;;;;6.40;2.70;;;;;;;1.49;57.37;100075.48;105738;1256;72672;-28
2024/02/19 07:15:48;;;;;;;7.60;3.70;;;;;;;1.73;56.05;100078.25;105680;1259;204741;-28
2024/02/19 07:18:16;;;;;;;15.70;5.90;;;;;;;1.83;55.87;100076.75;105886;1256;61122;-28
2024/02/19 07:28:20;;;;;;;8.10;2.20;;;;;;;2.00;54.75;100074.06;102644;1292;598636;-27
2024/02/19 07:30:48;;;;;;;1.60;1.10;;;;;;;1.93;53.95;100069.47;104791;1266;62092;-27
2024/02/19 07:33:17;;;;;;;2.20;1.50;;;;;;;1.85;53.56;100062.66;104837;1266;61131;-28
2024/02/19 07:35:45;;;;;;;5.70;2.10;;;;;;;1.97;53.61;100058.39;104858;1271;75076;-28
2024/02/19 07:38:13;;;;;;;5.10;2.20;;;;;;;2.11;53.54;100055.57;104818;1266;74309;-28
2024/02/19 07:40:41;;;;;;;3.70;1.60;;;;;;;2.14;53.27;100053.08;104733;1266;71411;-27
2024/02/19 07:43:09;;;;;;;3.20;2.10;;;;;;;2.17;54.05;100050.05;104671;1266;232135;-27
2024/02/19 07:45:37;;;;;;;2.60;1.70;;;;;;;2.20;53.69;100047.08;104966;1266;61152;-28
2024/02/19 07:48:07;;;;;;;5.30;2.00;;;;;;;2.25;53.05;100048.62;104875;1266;72887;-28
2024/02/19 07:50:35;;;;;;;2.90;1.60;;;;;;;2.30;52.92;100047.98;104845;1271;73223;-27
2024/02/19 07:53:03;;;;;;;5.70;2.20;;;;;;;2.41;52.13;100045.76;104849;1266;72635;-28
2024/02/19 07:55:32;;;;;;;3.20;1.50;;;;;;;2.39;51.92;100041.86;104902;1266;61101;-28
2024/02/19 07:58:00;;;;;;;2.20;1.50;;;;;;;2.34;51.62;100040.63;104924;1267;61551;-28
2024/02/19 08:00:28;;;;;;;2.30;1.60;;;;;;;2.47;51.47;100041.77;104970;1266;73008;-28
2024/02/19 08:02:56;;;;;;;1.80;1.00;;;;;;;2.65;52.12;100036.91;104863;1271;74308;-27
2024/02/19 08:05:24;;;;;;;5.30;1.70;;;;;;;2.53;51.74;100035.23;104903;1266;73091;-28
2024/02/19 08:07:52;;;;;;;2.30;1.00;;;;;;;2.51;51.38;100038.73;104737;1266;61206;-28
2024/02/19 08:10:20;;;;;;;0.70;0.60;;;;;;;2.27;50.67;100032.48;104766;1266;61216;-28
2024/02/19 08:12:48;;;;;;;2.00;0.80;;;;;;;2.05;50.55;100028.00;105139;1265;75586;-28
2024/02/19 08:15:16;;;;;;;4.00;1.00;;;;;;;2.22;51.45;100033.30;105667;1259;77156;-28
2024/02/19 08:17:45;;;;;;;1.40;0.80;;;;;;;2.64;51.41;100035.05;105482;1254;73216;-28
2024/02/19 08:20:13;;;;;;;0.70;0.70;;;;;;;2.68;49.43;100032.17;105704;1254;61185;-28
2024/02/19 08:30:16;;;;;;;1.30;0.90;;;;;;;2.93;50.10;100013.33;103051;1287;600201;-30
2024/02/19 08:32:44;;;;;;;3.50;0.90;;;;;;;3.16;49.77;100014.27;105434;1257;61148;-28
2024/02/19 08:35:12;;;;;;;2.90;0.90;;;;;;;3.31;48.44;100008.95;105572;1263;61662;-27
2024/02/19 08:37:42;;;;;;;1.00;0.80;;;;;;;3.26;48.94;100008.95;105517;1262;72141;-28
2024/02/19 08:40:10;;;;;;;4.80;1.10;;;;;;;3.21;48.08;100013.90;105230;1257;75525;-28
2024/02/19 08:42:38;;;;;;;0.90;0.80;;;;;;;3.20;47.73;100007.96;105599;1261;75408;-28
2024/02/19 08:45:08;;;;;;;2.20;0.80;;;;;;;3.44;47.67;100005.56;105418;1257;218911;-28
2024/02/19 08:47:36;;;;;;;1.30;0.80;;;;;;;3.30;46.85;99996.10;105578;1257;61135;-28
2024/02/19 08:50:05;;;;;;;2.70;0.70;;;;;;;3.27;47.96;99988.81;105707;1257;72212;-28
2024/02/19 08:52:33;;;;;;;3.80;0.80;;;;;;;3.68;47.44;99989.06;105659;1262;73236;-28
2024/02/19 09:02:58;;;;;;;1.40;0.90;;;;;;;4.15;45.76;99993.25;102885;1292;615235;-27
2024/02/19 09:05:25;;;;;;;2.20;0.70;;;;;;;4.04;45.96;99993.67;105147;1270;61212;-27
2024/02/19 09:07:52;;;;;;;1.90;1.70;;;;;;;4.05;46.02;100000.50;105177;1270;61095;-27
2024/02/19 09:10:20;;;;;;;1.20;1.00;;;;;;;3.90;46.33;99995.08;105178;1270;73758;-27
2024/02/19 09:12:47;;;;;;;1.50;0.80;;;;;;;3.80;46.38;100001.64;105085;1264;75505;-27
2024/02/19 09:15:14;;;;;;;2.00;1.20;;;;;;;3.64;46.30;99997.94;104901;1271;230633;-28
2024/02/19 09:17:42;;;;;;;1.80;0.90;;;;;;;3.41;46.80;99986.74;104866;1264;61228;-27
2024/02/19 09:20:10;;;;;;;1.70;0.70;;;;;;;3.53;46.48;99988.89;105132;1267;61082;-27
2024/02/19 09:22:40;;;;;;;1.90;1.20;;;;;;;3.56;46.09;99979.00;105253;1266;71922;-27
2024/02/19 09:25:07;;;;;;;3.30;1.40;;;;;;;3.43;46.62;99974.19;105615;1255;76222;-27
2024/02/19 09:27:37;;;;;;;0.80;0.70;;;;;;;3.48;47.00;99967.64;105671;1254;74063;-27
2024/02/19 09:30:05;;;;;;;1.20;0.90;;;;;;;3.55;46.46;99952.07;105713;1254;61424;-27
2024/02/19 09:32:32;;;;;;;1.20;1.10;;;;;;;3.24;47.21;99952.21;105630;1254;61112;-27
2024/02/19 09:35:03;;;;;;;1.00;0.60;;;;;;;3.19;47.95;99950.30;105710;1254;72824;-27
2024/02/19 09:37:31;;;;;;;0.90;0.50;;;;;;;3.07;48.29;99952.80;105682;1259;74130;-27
2024/02/19 09:39:58;;;;;;;0.80;0.60;;;;;;;3.08;48.04;99950.38;105710;1258;74287;-27
2024/02/19 09:42:27;;;;;;;1.30;0.80;;;;;;;3.16;48.28;99949.73;105721;1256;61054;-27
2024/02/19 09:44:54;;;;;;;2.00;0.90;;;;;;;3.23;47.96;99945.90;105575;1260;61966;-27
2024/02/19 09:47:21;;;;;;;1.00;0.60;;;;;;;3.35;47.36;99945.27;105681;1254;74916;-28
2024/02/19 09:49:49;;;;;;;0.60;0.60;;;;;;;3.30;48.26;99937.58;105711;1254;74057;-27
2024/02/19 09:52:25;;;;;;;1.50;0.80;;;;;;;3.49;47.65;99940.13;105621;1255;71476;-27
2024/02/19 09:54:56;;;;;;;1.10;0.70;;;;;;;3.91;47.37;99936.30;105399;1259;61151;-27
2024/02/19 09:57:25;;;;;;;0.80;0.80;;;;;;;3.87;47.13;99941.42;105389;1261;62166;-27
2024/02/19 09:59:52;;;;;;;0.50;0.50;;;;;;;3.71;46.53;99944.79;105430;1254;74893;-28
2024/02/19 10:02:19;;;;;;;0.60;0.60;;;;;;;3.72;46.72;99935.28;105663;1260;74181;-27
2024/02/19 10:04:50;;;;;;;0.80;0.60;;;;;;;4.08;45.98;99934.75;105664;1256;74497;-27
2024/02/19 10:07:18;;;;;;;1.20;0.80;;;;;;;4.26;45.29;99935.05;105677;1254;61158;-27
2024/02/19 10:09:49;;;;;;;1.00;0.60;;;;;;;4.35;44.91;99929.02;105710;1259;62137;-26
2024/02/19 10:12:19;;;;;;;3.20;1.90;;;;;;;4.27;44.82;99925.92;105457;1256;74778;-27
2024/02/19 10:14:47;;;;;;;2.80;1.60;;;;;;;4.32;45.45;99922.61;105675;1259;76498;-27
2024/02/19 10:17:22;;;;;;;2.00;1.60;;;;;;;4.68;45.06;99920.77;105550;1260;74526;-27
2024/02/19 10:20:05;;;;;;;1.40;0.70;;;;;;;4.78;44.75;99918.41;105600;1256;61357;-27
2024/02/19 10:22:33;;;;;;;1.20;0.80;;;;;;;4.85;43.98;99913.50;105467;1260;62051;-27
2024/02/19 10:25:07;;;;;;;1.70;0.60;;;;;;;5.39;43.95;99910.90;105413;1257;74720;-27
2024/02/19 10:27:35;;;;;;;3.10;0.90;;;;;;;5.79;42.40;99912.33;105480;1257;76193;-27
2024/02/19 10:30:04;;;;;;;3.30;1.50;;;;;;;6.16;41.11;99906.11;105634;1260;73275;-26
2024/02/19 10:32:32;;;;;;;0.80;0.80;;;;;;;6.22;40.12;99907.73;105610;1258;61211;-27
2024/02/19 10:35:00;;;;;;;1.40;0.90;;;;;;;6.47;40.02;99907.16;105652;1257;62227;-27
2024/02/19 10:37:27;;;;;;;1.30;0.80;;;;;;;6.67;40.44;99914.92;105672;1259;74660;-28
2024/02/19 10:39:55;;;;;;;0.60;0.60;;;;;;;6.20;40.10;99910.40;105631;1257;76192;-27
2024/02/19 10:42:23;;;;;;;0.90;0.70;;;;;;;5.96;40.40;99909.29;105488;1258;74264;-27
2024/02/19 10:44:50;;;;;;;1.20;0.80;;;;;;;5.36;41.26;99909.66;105484;1258;61300;-27
2024/02/19 10:47:17;;;;;;;0.90;0.60;;;;;;;4.79;42.22;99901.02;105598;1258;62139;-28
2024/02/19 10:49:56;;;;;;;0.80;0.70;;;;;;;4.81;43.40;99901.95;105589;1258;74797;-27
2024/02/19 10:52:27;;;;;;;0.80;0.60;;;;;;;4.89;43.47;99894.75;105546;1262;76002;-27
2024/02/19 10:54:56;;;;;;;1.50;0.70;;;;;;;5.24;42.60;99894.56;105670;1258;73993;-28
2024/02/19 10:57:53;;;;;;;4.50;1.00;;;;;;;5.72;42.83;99885.64;105586;1257;61278;-28
2024/02/19 11:00:25;;;;;;;1.40;0.80;;;;;;;6.08;41.37;99878.54;105660;1260;61173;-26
2024/02/19 11:03:06;;;;;;;1.70;1.10;;;;;;;6.57;40.02;99871.99;105659;1260;74360;-27
2024/02/19 11:05:38;;;;;;;1.30;0.60;;;;;;;6.64;38.39;99866.92;105619;1261;73581;-26
2024/02/19 11:08:15;;;;;;;0.50;0.50;;;;;;;6.46;39.15;99868.43;105567;1260;74418;-27
2024/02/19 11:10:43;;;;;;;2.20;1.00;;;;;;;6.20;39.56;99867.80;105554;1256;61038;-27
2024/02/19 11:13:12;;;;;;;1.20;0.80;;;;;;;6.02;40.41;99870.77;105621;1260;62007;-27
2024/02/19 11:15:42;;;;;;;1.60;0.70;;;;;;;6.25;39.66;99861.69;105622;1257;73406;-27
2024/02/19 11:18:17;;;;;;;0.80;0.60;;;;;;;5.97;40.56;99854.24;105560;1258;75542;-26
2024/02/19 11:20:46;;;;;;;0.60;0.50;;;;;;;5.70;41.03;99857.61;105529;1256;74059;-27
2024/02/19 11:23:18;;;;;;;2.10;0.50;;;;;;;5.62;40.94;99854.37;105530;1262;61099;-27
2024/02/19 11:25:46;;;;;;;1.50;0.70;;;;;;;5.45;40.43;99854.16;105670;1260;62071;-27
2024/02/19 11:28:13;;;;;;;1.60;0.50;;;;;;;5.28;39.89;99848.54;105639;1260;74645;-27
2024/02/19 11:30:41;;;;;;;1.00;0.70;;;;;;;5.06;40.57;99847.51;105663;1260;74548;-27
2024/02/19 11:33:09;;;;;;;0.50;0.50;;;;;;;5.00;41.03;99845.70;105619;1257;74606;-27
2024/02/19 11:35:36;;;;;;;0.70;0.70;;;;;;;5.01;41.00;99841.55;105662;1257;61209;-27
2024/02/19 11:38:04;;;;;;;0.50;0.50;;;;;;;5.17;41.18;99845.80;105531;1259;61913;-27
2024/02/19 11:40:32;;;;;;;0.70;0.50;;;;;;;5.09;41.61;99838.41;105668;1257;74738;-27
2024/02/19 11:43:00;;;;;;;0.60;0.60;;;;;;;5.15;41.52;99845.23;105656;1257;76059;-27
2024/02/19 11:45:30;;;;;;;0.80;0.80;;;;;;;5.16;41.05;99840.53;105648;1257;74519;-27
2024/02/19 11:47:57;;;;;;;0.90;0.60;;;;;;;4.91;40.80;99832.54;105695;1260;61205;-27
2024/02/19 11:50:27;;;;;;;2.30;0.60;;;;;;;4.88;41.46;99829.04;105495;1256;62001;-27
2024/02/19 11:52:58;;;;;;;5.20;0.90;;;;;;;4.63;41.05;99825.85;105636;1260;74902;-27
2024/02/19 11:55:29;;;;;;;0.60;0.60;;;;;;;4.77;42.24;99826.95;105645;1260;76075;-27
2024/02/19 11:58:00;;;;;;;1.20;0.90;;;;;;;4.74;42.39;99823.83;105586;1261;74558;-26
2024/02/19 12:00:31;;;;;;;1.10;0.70;;;;;;;4.84;41.86;99820.45;105536;1260;61182;-26
2024/02/19 12:02:59;;;;;;;1.50;0.80;;;;;;;4.84;41.87;99819.95;105665;1260;61671;-26
2024/02/19 12:05:27;;;;;;;2.50;1.30;;;;;;;4.91;41.82;99824.61;105651;1257;74579;-26
2024/02/19 12:07:55;;;;;;;1.20;0.90;;;;;;;5.07;41.56;99827.49;105688;1259;76316;-26
2024/02/19 12:10:23;;;;;;;1.70;1.00;;;;;;;4.90;40.95;99821.70;105687;1257;74469;-27
2024/02/19 12:12:51;;;;;;;2.50;1.30;;;;;;;5.15;41.23;99821.98;105544;1257;61333;-26
2024/02/19 12:15:19;;;;;;;2.30;0.70;;;;;;;5.06;41.22;99817.91;105669;1257;62525;-27
2024/02/19 12:17:51;;;;;;;2.90;0.90;;;;;;;4.97;41.07;99809.19;105651;1257;74752;-26
2024/02/19 12:20:19;;;;;;;3.00;1.20;;;;;;;4.89;41.08;99803.52;105669;1257;75566;-26
2024/02/19 12:22:47;;;;;;;3.60;1.20;;;;;;;4.88;41.19;99793.92;105634;1262;74285;-26
2024/02/19 12:25:15;;;;;;;2.90;0.90;;;;;;;4.59;40.63;99780.98;105651;1257;61154;-26
2024/02/19 12:27:42;;;;;;;1.20;0.60;;;;;;;4.36;41.25;99773.55;105683;1260;61958;-26
2024/02/19 12:30:10;;;;;;;1.30;0.90;;;;;;;4.14;41.85;99775.20;105728;1258;72492;-26
2024/02/19 12:32:39;;;;;;;2.50;0.80;;;;;;;4.18;42.35;99769.90;105628;1258;75708;-26
2024/02/19 12:35:07;;;;;;;1.60;1.00;;;;;;;4.21;41.82;99760.98;105527;1257;74358;-26
2024/02/19 12:37:35;;;;;;;3.50;1.40;;;;;;;4.15;42.22;99754.70;105652;1256;61209;-26
2024/02/19 12:40:03;;;;;;;0.80;0.60;;;;;;;4.09;41.81;99748.94;105612;1260;61955;-26
2024/02/19 12:42:33;;;;;;;1.60;1.00;;;;;;;4.09;42.24;99751.52;105584;1257;75080;-26
2024/02/19 12:45:00;;;;;;;1.10;0.80;;;;;;;4.26;42.88;99752.66;105637;1258;76344;-26
2024/02/19 12:47:28;;;;;;;3.50;1.30;;;;;;;4.39;42.32;99748.55;105689;1257;74706;-26
2024/02/19 12:49:56;;;;;;;4.10;1.10;;;;;;;4.44;42.09;99744.65;105661;1257;61724;-26
2024/02/19 12:52:27;;;;;;;0.90;0.70;;;;;;;4.34;43.06;99749.61;105689;1254;61080;-26
2024/02/19 12:54:55;;;;;;;2.80;0.90;;;;;;;4.19;43.11;99754.89;105580;1257;74875;-27
2024/02/19 12:57:23;;;;;;;1.60;1.10;;;;;;;4.24;43.39;99757.41;105658;1258;75897;-26
2024/02/19 12:59:50;;;;;;;1.60;1.10;;;;;;;4.29;43.70;99757.70;105609;1257;74546;-26
2024/02/19 13:02:17;;;;;;;4.20;1.70;;;;;;;4.44;43.95;99754.48;105544;1257;61102;-26
2024/02/19 13:04:46;;;;;;;3.70;1.80;;;;;;;4.49;44.08;99756.80;105584;1258;62193;-26
2024/02/19 13:07:15;;;;;;;2.30;1.20;;;;;;;4.36;44.21;99757.39;105657;1259;73348;-28
2024/02/19 13:09:42;;;;;;;0.80;0.80;;;;;;;4.20;44.54;99763.27;105693;1258;75718;-26
2024/02/19 13:12:11;;;;;;;2.30;1.30;;;;;;;4.42;44.17;99761.09;106018;1257;74571;-26
2024/02/19 13:14:39;;;;;;;3.20;1.80;;;;;;;4.17;44.06;99757.71;105928;1257;61672;-26
2024/02/19 13:17:08;;;;;;;1.50;1.00;;;;;;;3.96;45.13;99754.48;105931;1252;62179;-26
2024/02/19 13:19:42;;;;;;;1.50;0.60;;;;;;;3.87;45.37;99752.63;105991;1251;74542;-26
2024/02/19 13:22:11;;;;;;;1.10;0.70;;;;;;;3.81;45.79;99747.39;105793;1257;74486;-26
2024/02/19 13:24:39;;;;;;;1.80;1.20;;;;;;;3.67;46.00;99735.60;105957;1253;74221;-26
2024/02/19 13:27:06;;;;;;;2.50;1.50;;;;;;;3.68;45.74;99737.96;105977;1251;61093;-26
2024/02/19 13:29:34;;;;;;;2.80;2.20;;;;;;;3.70;45.93;99735.98;105943;1256;61593;-26
2024/02/19 13:32:01;;;;;;;2.10;1.20;;;;;;;3.40;46.90;99733.25;105970;1251;76213;-26
2024/02/19 13:34:29;;;;;;;1.90;0.70;;;;;;;3.33;47.34;99733.88;105937;1257;75212;-26
2024/02/19 13:36:57;;;;;;;1.20;0.80;;;;;;;3.24;47.49;99733.23;105855;1251;74257;-26
2024/02/19 13:39:25;;;;;;;1.30;0.80;;;;;;;3.15;47.98;99735.45;105975;1251;61321;-27
2024/02/19 13:41:52;;;;;;;1.60;1.00;;;;;;;3.18;48.04;99739.82;105964;1255;62051;-26
2024/02/19 13:44:19;;;;;;;1.30;1.10;;;;;;;3.20;47.93;99735.62;105921;1251;74648;-26
2024/02/19 13:46:46;;;;;;;0.80;0.70;;;;;;;2.91;48.39;99732.81;105834;1257;76532;-26
2024/02/19 13:49:14;;;;;;;1.00;0.80;;;;;;;2.95;48.10;99736.23;105845;1254;74657;-26
2024/02/19 13:51:42;;;;;;;2.90;1.30;;;;;;;3.06;48.02;99738.58;105792;1251;61096;-26
2024/02/19 13:54:10;;;;;;;2.10;1.10;;;;;;;3.08;47.74;99736.79;105752;1257;62046;-26
2024/02/19 13:56:37;;;;;;;0.60;0.60;;;;;;;3.06;47.78;99732.24;105985;1251;75525;-26
2024/02/19 13:59:07;;;;;;;2.40;1.10;;;;;;;2.98;48.15;99729.77;105957;1255;74668;-26
2024/02/19 14:01:34;;;;;;;1.60;1.00;;;;;;;2.99;47.98;99733.02;105976;1251;74513;-26
2024/02/19 14:04:07;;;;;;;1.70;1.40;;;;;;;2.93;48.24;99728.24;105911;1251;61198;-26
2024/02/19 14:06:34;;;;;;;1.80;1.20;;;;;;;2.95;47.97;99720.98;106004;1251;62163;-26
2024/02/19 14:09:02;;;;;;;2.10;1.40;;;;;;;2.84;48.07;99711.98;106019;1251;75686;-26
2024/02/19 14:11:30;;;;;;;3.80;1.60;;;;;;;2.85;48.02;99712.28;105973;1256;75887;-26